Latest Weather Observations for Maryborough

IDQ60801

Issued at 8:05 pm EST Saturday 22 November 2014 (issued every 30 minutes, with the page automatically refreshed every 10 minutes)

About weather observations | Map of weather stations | Latest weather observations for QLD | Other Formats
Station Details ID: 040126 Name: MARYBOROUGH Lat: -25.52 Lon: 152.72 Height: 10.28 m
Data from the previous 72 hours. | See also: Recent months at Maryborough
Date/Time
EST
Temp
°C
App
Temp
°C
Dew
Point
Rel
Hum
%
Delta-T
°C
Wind Press
QNH
hPa
Press
MSL
hPa
Rain
since 9 am
mm
Dir
 
Spd
km/h
Gust
km/h
Spd
kts
Gust
kts
22/08:00pm 24.5 27.0 21.0 81 2.3 N 9 13 5 7 1015.4 - 0.0
22/07:30pm 24.6 26.3 20.9 80 2.4 N 13 19 7 10 1014.7 - 0.0
22/07:00pm 24.8 26.5 20.9 79 2.6 N 13 17 7 9 1014.4 - 0.0
22/06:30pm 25.2 26.5 20.9 77 2.8 N 15 20 8 11 1014.1 - 0.0
22/06:00pm 25.9 26.4 20.9 74 3.3 N 19 30 10 16 1013.5 1013.4 0.0
22/05:30pm 26.7 27.2 20.8 70 3.9 N 19 30 10 16 1013.0 - 0.0
22/05:00pm 27.5 28.1 21.3 69 4.1 N 20 32 11 17 1012.8 - 0.0
22/04:30pm 28.2 28.0 20.5 63 5.1 N 22 32 12 17 1012.6 - 0.0
22/04:00pm 29.0 29.0 21.0 62 5.3 NNE 22 32 12 17 1012.5 - 0.0
22/03:30pm 29.3 28.7 21.3 62 5.3 NNE 26 33 14 18 1012.6 - 0.0
22/03:00pm 29.7 29.6 20.8 58 5.9 N 22 30 12 16 1012.8 1012.7 0.0
22/02:30pm 30.8 31.3 21.9 59 6.0 N 22 28 12 15 1013.0 - 0.0
22/02:00pm 29.6 29.8 20.5 58 6.0 N 20 33 11 18 1013.3 - 0.0
22/01:30pm 30.8 31.3 21.9 59 6.0 N 22 33 12 18 1013.5 - 0.0
22/01:00pm 29.8 30.1 21.5 61 5.6 N 22 35 12 19 1013.9 - 0.0
22/12:30pm 30.7 31.6 22.6 62 5.5 N 22 30 12 16 1014.3 - 0.0
22/12:00pm 29.6 30.4 21.8 63 5.3 NNE 20 30 11 16 1014.7 1014.6 0.0
22/11:30am 30.0 31.1 22.4 63 5.2 N 20 28 11 15 1015.0 - 0.0
22/11:00am 29.7 30.0 21.6 61 5.4 N 22 33 12 18 1015.5 - 0.0
22/10:30am 28.5 29.3 21.3 65 4.8 N 19 24 10 13 1015.7 - 0.0
22/10:00am 28.5 29.1 21.3 65 4.8 N 20 28 11 15 1015.9 - 0.0
22/09:30am 28.5 29.5 21.8 67 4.5 N 19 26 10 14 1016.0 - 0.0
22/09:00am 28.3 28.6 21.6 67 4.5 N 22 32 12 17 1015.9 1015.8 0.0
22/08:30am 28.1 28.2 21.1 65 4.7 N 22 30 12 16 1015.9 - 0.0
22/08:00am 28.1 29.2 22.3 70 3.9 N 20 28 11 15 1015.9 - 0.0
22/07:30am 26.3 26.9 21.1 73 3.4 N 19 26 10 14 1016.0 - 0.0
22/07:00am 26.7 28.7 22.3 77 3.0 N 15 22 8 12 1015.9 - 0.0
22/06:30am 25.5 30.3 22.2 82 2.2 CALM 0 0 0 0 1015.7 - 0.0
22/06:00am 24.5 29.3 22.2 87 1.5 CALM 0 0 0 0 1015.4 1015.3 0.0
22/05:30am 23.7 27.0 21.8 89 1.3 SW 7 9 4 5 1015.0 - 0.0
22/05:00am 23.3 27.6 21.2 88 1.4 CALM 0 4 0 2 1014.6 - 0.0
22/04:30am 23.3 26.5 21.2 88 1.4 NNE 6 11 3 6 1014.1 - 0.0
22/04:00am 23.4 26.3 21.1 87 1.5 N 7 11 4 6 1013.8 - 0.0
22/03:30am 23.7 26.3 21.2 86 1.6 N 9 13 5 7 1013.6 - 0.0
22/03:00am 24.0 26.9 21.7 87 1.5 N 9 17 5 9 1013.2 1013.1 0.0
22/02:30am 23.2 27.7 21.6 91 1.1 CALM 0 7 0 4 1013.1 - 0.0
22/02:00am 23.4 27.8 21.3 88 1.4 CALM 0 0 0 0 1013.3 - 0.0
22/01:30am 23.6 26.4 21.5 88 1.4 N 9 11 5 6 1013.2 - 0.0
22/01:00am 23.6 26.3 21.3 87 1.5 N 9 11 5 6 1013.4 - 0.0
22/12:30am 23.8 26.2 21.5 87 1.5 N 11 15 6 8 1013.8 - 0.0
22/12:00am 23.9 26.6 21.4 86 1.6 N 9 13 5 7 1014.3 1014.2 0.0
 
Date/Time
EST
Temp
°C
App
Temp
°C
Dew
Point
Rel
Hum
%
Delta-T
°C
Wind Press
QNH
hPa
Press
MSL
hPa
Rain
since 9 am
mm
Dir
 
Spd
km/h
Gust
km/h
Spd
kts
Gust
kts
21/11:30pm 23.9 26.3 21.6 87 1.5 N 11 15 6 8 1014.5 - 0.0
21/11:00pm 23.8 26.2 21.5 87 1.5 N 11 13 6 7 1014.7 - 0.0
21/10:30pm 24.0 26.4 21.5 86 1.7 N 11 15 6 8 1014.9 - 0.0
21/10:00pm 24.3 26.6 21.4 84 1.9 N 11 17 6 9 1014.9 - 0.0
21/09:30pm 24.3 26.2 21.4 84 1.9 N 13 19 7 10 1014.5 - 0.0
21/09:00pm 24.3 26.3 21.6 85 1.8 N 13 19 7 10 1014.0 1013.9 0.0
21/08:30pm 24.5 26.1 21.4 83 2.0 N 15 19 8 10 1014.0 - 0.0
21/08:00pm 24.5 26.6 21.0 81 2.3 N 11 17 6 9 1013.9 - 0.0
21/07:30pm 24.8 26.5 20.9 79 2.6 N 13 19 7 10 1013.8 - 0.0
21/07:00pm 25.2 26.8 20.7 76 2.9 N 13 22 7 12 1013.3 - 0.0
21/06:30pm 25.5 26.5 20.3 73 3.4 N 15 24 8 13 1013.1 - 0.0
21/06:00pm 26.1 26.2 20.0 69 4.0 N 19 30 10 16 1012.9 1012.8 0.0
21/05:30pm 27.1 26.5 19.7 64 4.8 N 22 33 12 18 1012.7 - 0.0
21/05:00pm 28.2 26.6 19.1 57 5.9 N 26 33 14 18 1012.4 - 0.0
21/04:30pm 29.0 27.3 19.0 54 6.5 N 26 35 14 19 1012.0 - 0.0
21/04:00pm 29.7 27.7 19.1 53 6.9 N 28 39 15 21 1011.8 - 0.0
21/03:30pm 30.2 29.2 19.6 53 6.9 N 24 35 13 19 1011.8 - 0.0
21/03:00pm 30.0 28.4 19.1 52 7.1 N 26 35 14 19 1012.0 1011.9 0.0
21/02:30pm 30.8 29.7 19.5 51 7.4 N 24 33 13 18 1012.2 - 0.0
21/02:00pm 31.1 30.4 19.4 49 7.7 N 22 32 12 17 1012.7 - 0.0
21/01:30pm 31.0 30.7 20.3 53 7.1 N 22 33 12 18 1013.0 - 0.0
21/01:00pm 31.5 31.6 21.1 54 7.0 N 22 30 12 16 1013.4 - 0.0
21/12:30pm 30.5 30.0 20.7 55 6.5 N 24 32 13 17 1013.9 - 0.0
21/12:00pm 30.7 31.6 22.0 59 5.9 N 20 32 11 17 1014.4 1014.3 0.0
21/11:30am 29.4 29.5 20.3 58 6.0 N 20 30 11 16 1014.8 - 0.0
21/11:00am 29.1 29.2 20.0 58 6.0 N 19 30 10 16 1015.3 - 0.0
21/10:30am 29.1 29.6 21.1 62 5.3 N 20 32 11 17 1015.5 - 0.0
21/10:00am 29.5 29.2 19.5 55 6.5 N 20 32 11 17 1015.6 - 0.0
21/09:30am 29.2 29.0 19.8 57 6.2 NNE 20 26 11 14 1015.9 - 0.0
21/09:00am 28.5 29.0 20.8 63 5.1 NNE 19 26 10 14 1016.0 1015.9 2.0
21/08:30am 27.6 28.0 19.9 63 5.0 N 17 24 9 13 1016.2 - 2.0
21/08:00am 27.4 29.3 21.4 70 4.0 N 13 20 7 11 1016.5 - 2.0
21/07:30am 26.9 28.1 20.7 69 4.1 N 15 22 8 12 1016.5 - 2.0
21/07:00am 26.1 29.0 22.4 80 2.5 N 11 15 6 8 1016.4 - 2.0
21/06:30am 24.7 27.6 21.8 84 1.9 N 9 9 5 5 1016.2 - 2.0
21/06:00am 23.7 28.1 21.4 87 1.5 CALM 0 6 0 3 1016.2 1016.1 2.0
21/05:30am 23.0 27.4 21.4 91 1.1 CALM 0 6 0 3 1015.9 - 1.8
21/05:00am 22.6 25.9 21.8 95 0.5 NNE 7 9 4 5 1015.4 - 1.8
21/04:51am 22.6 25.9 21.9 96 0.5 NNE 7 13 4 7 1015.4 - 1.8
21/04:30am 21.9 26.3 21.4 97 0.3 CALM 0 0 0 0 1015.2 - 0.6
21/04:15am 21.8 26.2 21.3 97 0.3 CALM 0 0 0 0 1015.1 - 0.2
21/04:00am 21.1 25.0 20.4 96 0.5 CALM 0 0 0 0 1015.0 - 0.2
21/03:30am 21.3 25.3 20.6 96 0.5 CALM 0 0 0 0 1014.8 - 0.2
21/03:19am 21.1 24.6 20.4 96 0.5 NNE 2 6 1 3 1014.7 - 0.2
21/03:00am 21.0 23.7 20.2 95 0.5 NNE 6 7 3 4 1014.8 1014.7 0.2
21/02:59am 20.9 23.4 19.9 94 0.6 NNE 6 7 3 4 1014.7 - 0.2
21/02:30am 21.1 25.0 20.3 95 0.5 CALM 0 0 0 0 1014.9 - 0.2
21/02:00am 21.6 25.7 20.8 95 0.5 CALM 0 0 0 0 1014.9 - 0.2
21/01:30am 21.4 24.4 20.0 92 0.9 ENE 4 6 2 3 1015.0 - 0.2
21/01:25am 21.3 23.8 19.8 91 1.0 ENE 6 6 3 3 1015.0 - 0.2
21/01:07am 21.7 24.5 20.5 93 0.8 ENE 6 7 3 4 1015.2 - 0.2
21/01:00am 22.0 25.0 20.8 93 0.8 ENE 6 9 3 5 1015.3 - 0.2
21/12:43am 21.8 25.7 20.3 91 1.0 CALM 0 4 0 2 1015.5 - 0.2
21/12:30am 21.9 24.9 20.0 89 1.2 ENE 4 6 2 3 1015.7 - 0.2
21/12:00am 22.6 25.9 20.7 89 1.2 ENE 4 6 2 3 1016.1 1016.0 0.2
 
Date/Time
EST
Temp
°C
App
Temp
°C
Dew
Point
Rel
Hum
%
Delta-T
°C
Wind Press
QNH
hPa
Press
MSL
hPa
Rain
since 9 am
mm
Dir
 
Spd
km/h
Gust
km/h
Spd
kts
Gust
kts
20/11:30pm 22.9 26.5 21.2 90 1.1 ENE 4 7 2 4 1016.3 - 0.2
20/11:00pm 22.9 25.9 21.2 90 1.1 ENE 7 9 4 5 1016.4 - 0.2
20/10:30pm 22.7 25.7 20.8 89 1.2 NE 6 7 3 4 1016.7 - 0.2
20/10:00pm 22.4 25.0 20.5 89 1.2 NE 7 9 4 5 1016.8 - 0.2
20/09:30pm 23.3 26.5 20.6 85 1.8 NE 4 6 2 3 1016.9 - 0.2
20/09:00pm 23.6 26.5 20.7 84 1.9 NNE 6 7 3 4 1016.7 1016.6 0.2
20/08:30pm 23.9 26.7 20.8 83 2.0 N 7 7 4 4 1016.7 - 0.2
20/08:00pm 24.2 26.4 21.1 83 2.0 N 11 13 6 7 1016.4 - 0.0
20/07:30pm 24.8 26.9 20.9 79 2.6 NNE 11 15 6 8 1016.1 - 0.0
20/07:00pm 24.8 27.1 20.7 78 2.7 NNE 9 13 5 7 1015.8 - 0.0
20/06:30pm 25.1 27.0 20.6 76 2.9 NNE 11 15 6 8 1015.4 - 0.0
20/06:00pm 25.7 27.8 20.9 75 3.2 NE 11 17 6 9 1015.1 1015.0 0.0
20/05:30pm 26.4 27.1 20.5 70 3.9 NE 17 26 9 14 1014.8 - 0.0
20/05:00pm 26.7 26.4 19.6 65 4.6 NNE 20 30 11 16 1014.4 - 0.0
20/04:30pm 27.7 27.5 19.8 62 5.1 NNE 20 28 11 15 1014.1 - 0.0
20/04:00pm 28.4 28.6 20.1 60 5.4 NE 19 28 10 15 1014.0 - 0.0
20/03:30pm 27.8 27.6 19.8 61 5.2 NNE 20 30 11 16 1014.0 - 0.0
20/03:00pm 28.0 27.8 19.8 61 5.3 NE 20 28 11 15 1014.2 1014.1 0.0
20/02:30pm 28.0 28.0 19.8 61 5.3 NNE 19 30 10 16 1014.4 - 0.0
20/02:00pm 28.9 28.8 19.5 57 6.1 NNE 19 28 10 15 1014.8 - 0.0
20/01:30pm 29.2 29.7 20.9 61 5.5 NNE 19 24 10 13 1015.1 - 0.0
20/01:00pm 29.1 31.0 22.1 66 4.7 NNE 15 22 8 12 1015.5 - 0.0
20/12:30pm 26.6 26.5 20.0 67 4.3 N 20 30 11 16 1016.0 - 0.0
20/12:00pm 28.5 28.0 18.6 55 6.3 N 19 24 10 13 1016.3 1016.2 0.0
20/11:30am 29.7 30.3 19.4 54 6.7 NE 15 20 8 11 1016.4 - 0.0
20/11:00am 28.1 28.5 18.2 55 6.3 N 13 20 7 11 1017.1 - 0.0
20/10:30am 28.3 29.1 19.0 57 6.0 NE 13 26 7 14 1017.5 - 0.0
20/10:00am 28.2 28.8 19.4 59 5.7 NE 15 24 8 13 1017.8 - 0.0
20/09:30am 27.1 27.8 19.7 64 4.8 N 15 20 8 11 1017.9 - 0.0
20/09:00am 26.2 29.0 20.5 71 3.7 NNE 6 11 3 6 1018.1 1018.0 11.4
20/08:30am 24.8 27.7 19.8 74 3.2 SSW 4 9 2 5 1018.3 - 11.4
20/08:00am 23.9 26.0 20.2 80 2.4 S 9 11 5 6 1018.3 - 11.2
20/07:30am 22.1 24.1 19.1 83 1.9 SW 7 9 4 5 1018.2 - 11.2
20/07:00am 21.3 22.3 18.7 85 1.6 SSW 11 15 6 8 1017.9 - 11.2
20/06:30am 20.1 20.8 18.0 88 1.3 S 11 13 6 7 1017.5 - 11.2
20/06:00am 19.8 21.3 18.1 90 1.0 SSW 7 13 4 7 1017.4 1017.3 11.2
20/05:30am 19.2 20.3 17.9 92 0.8 SSW 9 11 5 6 1016.8 - 11.2
20/05:00am 18.7 19.2 17.4 92 0.8 S 11 15 6 8 1016.5 - 11.2
20/04:30am 18.8 19.7 17.5 92 0.8 S 9 11 5 6 1016.1 - 11.2
20/04:00am 18.9 20.2 17.6 92 0.8 S 7 11 4 6 1015.8 - 11.2
20/03:30am 19.1 20.0 17.6 91 0.9 SSW 9 11 5 6 1015.4 - 11.2
20/03:00am 19.0 20.4 17.7 92 0.8 SSE 7 7 4 4 1015.2 1015.1 11.2
20/02:30am 18.7 19.9 17.4 92 0.8 S 7 9 4 5 1015.4 - 11.2
20/02:00am 19.0 21.6 17.5 91 0.9 CALM 0 2 0 1 1015.6 - 11.2
20/01:30am 19.6 20.8 17.4 87 1.3 W 7 9 4 5 1015.8 - 11.2
20/01:00am 19.6 18.7 16.8 84 1.7 N 17 22 9 12 1015.4 - 11.2
20/12:30am 19.6 19.8 17.6 88 1.2 W 13 20 7 11 1017.1 - 11.2
20/12:00am 19.2 18.8 17.2 88 1.2 NNE 15 20 8 11 1016.5 1016.4 11.2
 
Date/Time
EST
Temp
°C
App
Temp
°C
Dew
Point
Rel
Hum
%
Delta-T
°C
Wind Press
QNH
hPa
Press
MSL
hPa
Rain
since 9 am
mm
Dir
 
Spd
km/h
Gust
km/h
Spd
kts
Gust
kts
19/11:30pm 19.0 19.7 17.0 88 1.2 N 9 15 5 8 1017.4 - 11.2
19/11:00pm 19.1 18.9 16.7 86 1.4 NNE 13 17 7 9 1018.0 - 11.2
19/10:30pm 19.6 21.0 17.9 90 1.0 S 7 9 4 5 1019.9 - 10.2
19/10:29pm 19.6 21.0 17.9 90 1.0 S 7 9 4 5 1019.9 - 10.2
19/10:11pm 19.7 21.1 17.7 88 1.2 SW 7 11 4 6 1020.0 - 9.0
19/10:00pm 19.9 20.2 18.0 89 1.2 SSW 13 15 7 8 1019.9 - 8.4
19/09:30pm 19.9 19.8 17.9 88 1.2 SSE 15 17 8 9 1019.1 - 7.2
19/09:03pm 20.0 20.3 18.0 88 1.2 S 13 17 7 9 1018.7 - 6.6
19/09:00pm 20.0 20.0 18.1 89 1.2 S 15 17 8 9 1018.6 1018.5 6.6
19/08:46pm 20.1 21.2 17.9 87 1.4 S 9 15 5 8 1018.2 - 6.0
19/08:30pm 20.6 23.2 17.4 82 2.0 CALM 0 0 0 0 1017.8 - 4.8

Other Formats:

Comma delimited format used in spreadsheet applications
http://www.bom.gov.au/fwo/IDQ60801/IDQ60801.94567.axf

JavaScript Object Notation format (JSON) in row-major order
http://www.bom.gov.au/fwo/IDQ60801/IDQ60801.94567.json